Time;durP1;ratioP1;P1;durP2;ratioP2;P2;SDS_P1;SDS_P2;PMS_P1;PMS_P2;Temp;Humidity;BMP_temperature;BMP_pressure;BME280_temperature;BME280_humidity;BME280_pressure;Samples;Min_cycle;Max_cycle;Signal;HPM_P1;HPM_P2
2022/01/28 00:00:13;;;;;;;14.57;2.78;;;;;;;6.73;66.51;102931.53;5094260;28;20035;-65
2022/01/28 00:04:47;;;;;;;12.07;2.10;;;;;;;6.75;66.15;102939.63;5093526;28;20036;-65
2022/01/28 00:07:12;;;;;;;11.05;2.13;;;;;;;6.79;66.66;102949.25;5109910;28;20024;-65
2022/01/28 00:09:38;;;;;;;13.52;2.72;;;;;;;6.80;66.98;102957.38;5101869;28;20466;-65
2022/01/28 00:12:03;;;;;;;13.82;2.63;;;;;;;6.76;66.32;102972.56;5113820;28;20378;-65
2022/01/28 00:14:42;;;;;;;14.65;2.78;;;;;;;6.74;66.49;102973.78;5106185;28;20367;-65
2022/01/28 00:17:49;;;;;;;9.57;2.08;;;;;;;6.75;66.30;102975.50;5097224;28;20048;-65
2022/01/28 00:38:57;;;;;;;10.45;2.63;;;;;;;6.59;66.66;102985.53;5094880;28;20036;-65
2022/01/28 00:41:22;;;;;;;14.93;2.50;;;;;;;6.55;66.87;102986.03;5095528;28;20043;-65
2022/01/28 00:43:47;;;;;;;13.63;2.53;;;;;;;6.51;66.73;102982.78;5093143;28;20031;-65
2022/01/28 00:46:12;;;;;;;13.07;2.65;;;;;;;6.45;66.72;102977.97;5091367;28;20475;-65
2022/01/28 00:48:38;;;;;;;15.25;2.95;;;;;;;6.45;67.42;102977.13;5097137;28;20471;-65
2022/01/28 00:51:04;;;;;;;12.70;2.40;;;;;;;6.45;66.73;102974.34;5093242;28;20036;-65
2022/01/28 00:53:29;;;;;;;11.63;2.67;;;;;;;6.49;67.43;102976.59;5092291;28;20785;-65
2022/01/28 00:55:55;;;;;;;12.63;2.38;;;;;;;6.52;67.09;102978.13;5112489;28;20023;-65
2022/01/28 00:58:21;;;;;;;10.75;2.10;;;;;;;6.52;67.09;102978.13;5113456;28;20486;-65
2022/01/28 01:00:47;;;;;;;15.88;2.88;;;;;;;6.49;66.63;102989.53;5105954;28;20032;-66
2022/01/28 01:03:12;;;;;;;16.30;3.03;;;;;;;6.45;66.72;102977.97;5109872;28;20036;-65
2022/01/28 01:05:37;;;;;;;11.82;2.42;;;;;;;6.41;66.34;102975.75;5112761;28;20375;-66
2022/01/28 01:08:05;;;;;;;12.57;2.75;;;;;;;6.45;66.83;102985.38;5112570;28;20024;-65
2022/01/28 01:10:32;;;;;;;13.07;2.45;;;;;;;6.44;67.06;102986.41;5109786;28;20490;-65
2022/01/28 01:12:58;;;;;;;13.07;2.63;;;;;;;6.45;67.04;102986.25;5105593;28;20081;-65
2022/01/28 01:15:28;;;;;;;11.35;2.38;;;;;;;6.48;66.74;102987.78;5112055;28;20030;-65
2022/01/28 01:18:01;;;;;;;12.05;2.08;;;;;;;6.48;66.70;102994.16;5113326;28;20046;-65
2022/01/28 01:23:06;;;;;;;15.38;2.60;;;;;;;6.43;66.88;102993.81;5091793;28;20024;-65
2022/01/28 01:25:41;;;;;;;12.13;2.80;;;;;;;6.45;66.49;102986.25;5095853;28;20084;-65
2022/01/28 01:28:07;;;;;;;11.85;2.13;;;;;;;6.44;66.63;102986.41;5109881;28;20106;-65
2022/01/28 01:30:38;;;;;;;15.05;2.42;;;;;;;6.42;66.68;102996.75;5112142;28;20118;-65
2022/01/28 01:33:04;;;;;;;11.57;2.00;;;;;;;6.39;66.42;102997.97;5099020;28;20494;-65
2022/01/28 01:35:29;;;;;;;13.90;2.60;;;;;;;6.42;67.46;103002.28;5090646;28;20042;-65
2022/01/28 01:37:54;;;;;;;11.48;2.30;;;;;;;6.39;66.75;103006.22;5092026;28;20103;-65
2022/01/28 01:40:27;;;;;;;15.18;2.65;;;;;;;6.39;67.28;103001.56;5092123;28;20367;-65
2022/01/28 01:43:05;;;;;;;13.10;2.60;;;;;;;6.34;66.82;103003.13;5105593;28;20035;-65
2022/01/28 01:53:27;;;;;;;15.90;2.75;;;;;;;6.31;67.44;103031.06;5112603;28;20406;-65
2022/01/28 01:55:53;;;;;;;13.73;2.45;;;;;;;6.33;67.45;103040.03;5111451;28;20024;-64
2022/01/28 01:58:24;;;;;;;14.43;2.47;;;;;;;6.30;67.21;103040.38;5103927;28;20112;-65
2022/01/28 02:00:50;;;;;;;13.60;2.47;;;;;;;6.28;67.28;103053.47;5093597;28;20055;-65
2022/01/28 02:03:15;;;;;;;17.98;3.10;;;;;;;6.25;67.41;103059.31;5110607;28;20112;-65
2022/01/28 02:05:41;;;;;;;13.38;2.75;;;;;;;6.25;67.99;103059.31;5112417;28;20164;-65
2022/01/28 02:08:06;;;;;;;9.70;2.47;;;;;;;6.26;67.78;103072.09;5108625;28;20348;-65
2022/01/28 02:10:35;;;;;;;14.07;2.63;;;;;;;6.23;67.56;103075.19;5090977;28;20059;-65
2022/01/28 02:13:00;;;;;;;17.27;3.15;;;;;;;6.26;67.37;103070.19;5111572;28;20063;-65
2022/01/28 02:15:26;;;;;;;13.27;2.70;;;;;;;6.26;67.72;103067.44;5104532;28;20063;-65
2022/01/28 02:17:51;;;;;;;10.38;2.70;;;;;;;6.26;67.25;103066.56;5108860;28;20034;-65
2022/01/28 02:20:26;;;;;;;15.70;2.90;;;;;;;6.27;67.25;103068.28;5111728;28;20134;-65
2022/01/28 02:22:53;;;;;;;13.00;2.15;;;;;;;6.23;67.55;103076.03;5111665;28;20254;-66
2022/01/28 02:25:23;;;;;;;12.85;3.00;;;;;;;6.24;67.99;103083.28;5091846;28;20032;-65
2022/01/28 02:27:49;;;;;;;19.08;3.00;;;;;;;6.22;67.91;103070.72;5099614;28;20031;-65
2022/01/28 02:30:14;;;;;;;15.20;2.92;;;;;;;6.25;67.33;103076.75;5110655;28;20043;-65
2022/01/28 02:32:40;;;;;;;15.57;2.55;;;;;;;6.22;67.88;103079.84;5096180;28;20020;-65
2022/01/28 02:35:06;;;;;;;13.23;2.72;;;;;;;6.21;67.83;103086.41;5091271;28;20560;-65
2022/01/28 02:37:31;;;;;;;12.45;2.35;;;;;;;6.17;67.80;103084.13;5101467;28;20067;-65
2022/01/28 02:39:56;;;;;;;11.15;2.72;;;;;;;6.14;67.97;103079.81;5110086;28;20114;-65
2022/01/28 02:42:33;;;;;;;17.33;3.35;;;;;;;6.15;68.29;103076.03;5108255;28;20034;-65
2022/01/28 02:45:01;;;;;;;13.88;2.55;;;;;;;6.14;68.18;103072.41;5090655;28;20523;-65
2022/01/28 02:47:33;;;;;;;14.75;2.42;;;;;;;6.11;67.69;103077.41;5104809;28;20468;-65
2022/01/28 02:49:58;;;;;;;14.57;2.80;;;;;;;6.08;68.70;103084.09;5110925;28;20123;-65
2022/01/28 02:52:35;;;;;;;18.45;2.50;;;;;;;6.13;68.13;103084.47;5108363;28;20103;-65
2022/01/28 02:55:02;;;;;;;14.05;2.72;;;;;;;6.08;68.24;103091.50;5095716;28;20035;-65
2022/01/28 02:57:28;;;;;;;18.70;3.70;;;;;;;6.10;68.63;103095.84;5094634;28;20040;-65
2022/01/28 02:59:53;;;;;;;13.70;2.63;;;;;;;6.09;68.25;103096.88;5110131;28;20043;-65
2022/01/28 03:02:18;;;;;;;13.55;2.65;;;;;;;6.11;68.34;103096.69;5111239;28;20019;-65
2022/01/28 03:07:25;;;;;;;12.65;2.90;;;;;;;6.03;68.07;103104.94;5090358;28;20032;-65
2022/01/28 03:10:14;;;;;;;13.07;2.63;;;;;;;6.07;68.28;103109.97;5093877;28;20051;-65
2022/01/28 03:12:58;;;;;;;14.07;3.17;;;;;;;6.07;68.09;103118.22;5108283;28;20036;-66
2022/01/28 03:15:22;;;;;;;14.57;2.92;;;;;;;6.09;68.25;103113.44;5095648;28;20039;-66
2022/01/28 03:17:56;;;;;;;13.27;2.80;;;;;;;6.06;68.69;103105.47;5090894;28;20064;-66
2022/01/28 03:22:47;;;;;;;15.90;2.55;;;;;;;6.08;68.52;103122.69;5089921;28;20036;-66
2022/01/28 03:25:14;;;;;;;13.38;2.90;;;;;;;6.05;68.72;103120.31;5090762;28;20036;-66
2022/01/28 03:27:57;;;;;;;13.90;2.55;;;;;;;6.06;69.33;103123.91;5094066;28;20453;-66
2022/01/28 03:30:23;;;;;;;11.15;2.60;;;;;;;6.10;68.36;103122.56;5090578;28;20043;-65
2022/01/28 03:32:49;;;;;;;16.42;3.22;;;;;;;6.09;68.66;103123.56;5090368;28;20115;-65
2022/01/28 03:35:16;;;;;;;11.43;2.85;;;;;;;6.06;68.94;103121.16;5090305;28;20123;-65
2022/01/28 03:37:41;;;;;;;14.27;3.05;;;;;;;6.08;69.05;103119.09;5090784;28;20131;-65
2022/01/28 03:40:08;;;;;;;14.55;2.92;;;;;;;6.07;69.12;103123.75;5090403;28;20025;-65
2022/01/28 03:42:34;;;;;;;15.93;2.63;;;;;;;6.06;69.06;103122.03;5089715;28;20028;-66
2022/01/28 03:45:00;;;;;;;13.82;2.72;;;;;;;6.09;69.45;103126.31;5101937;28;20012;-66
2022/01/28 03:47:25;;;;;;;12.00;2.70;;;;;;;6.12;69.54;103117.72;5090455;28;20027;-66
2022/01/28 03:49:50;;;;;;;20.08;2.70;;;;;;;6.13;69.37;103123.09;5089817;28;20477;-66
2022/01/28 03:52:16;;;;;;;13.02;3.10;;;;;;;6.08;69.08;103122.69;5090365;28;20028;-66
2022/01/28 03:54:41;;;;;;;11.23;2.55;;;;;;;6.09;69.28;103121.69;5098787;28;20032;-65
2022/01/28 03:57:07;;;;;;;10.73;2.55;;;;;;;6.09;68.96;103126.31;5109786;28;20051;-65
2022/01/28 03:59:33;;;;;;;13.98;2.83;;;;;;;6.03;68.82;103122.34;5108974;28;20049;-65
2022/01/28 04:01:58;;;;;;;11.52;2.60;;;;;;;6.06;68.83;103132.19;5094357;28;20135;-66
2022/01/28 04:12:33;;;;;;;15.50;2.53;;;;;;;5.98;68.82;103138.53;5093527;28;20039;-65
2022/01/28 04:17:23;;;;;;;9.52;2.45;;;;;;;5.97;69.06;103149.72;5092461;28;20467;-66
2022/01/28 04:19:50;;;;;;;10.45;1.92;;;;;;;5.93;68.96;103146.41;5106724;28;20420;-66
2022/01/28 04:22:16;;;;;;;14.50;2.20;;;;;;;5.91;69.04;103145.72;5113896;28;20077;-65
2022/01/28 04:24:41;;;;;;;9.55;2.38;;;;;;;5.91;69.16;103145.72;5113244;28;20069;-65
2022/01/28 04:27:07;;;;;;;10.05;2.08;;;;;;;5.89;68.99;103153.25;5113274;28;20023;-65
2022/01/28 04:29:32;;;;;;;11.98;1.85;;;;;;;5.94;69.36;103155.59;5093383;28;20028;-66
2022/01/28 04:31:57;;;;;;;11.98;2.28;;;;;;;5.97;69.40;103149.72;5092622;28;20060;-65
2022/01/28 04:34:24;;;;;;;12.52;2.05;;;;;;;5.94;69.41;103158.34;5095544;28;20092;-65
2022/01/28 04:39:29;;;;;;;12.20;2.55;;;;;;;5.93;69.88;103164.84;5092604;28;20036;-65
2022/01/28 04:42:05;;;;;;;11.02;2.30;;;;;;;5.89;69.87;103167.03;5093167;28;20383;-65
2022/01/28 04:44:45;;;;;;;8.35;2.63;;;;;;;5.89;70.30;103165.19;5100827;28;20032;-65
2022/01/28 04:53:19;;;;;;;10.57;2.40;;;;;;;5.85;70.74;103173.91;5085825;28;20039;-65
2022/01/28 04:59:01;;;;;;;13.25;3.13;;;;;;;5.86;71.02;103172.91;5113136;28;20043;-65
2022/01/28 05:12:38;;;;;;;14.73;3.92;;;;;;;5.81;71.12;103195.44;5110953;28;20043;-66
2022/01/28 05:27:43;;;;;;;15.05;3.72;;;;;;;5.70;70.48;103214.13;5112046;28;20386;-66
2022/01/28 05:30:08;;;;;;;11.65;3.45;;;;;;;5.65;71.06;103211.88;5103076;28;20412;-65
2022/01/28 05:32:34;;;;;;;11.48;3.38;;;;;;;5.65;70.82;103204.47;5093028;28;20119;-65
2022/01/28 05:35:00;;;;;;;16.80;3.80;;;;;;;5.65;71.10;103207.22;5091577;28;20024;-65
2022/01/28 05:37:25;;;;;;;16.13;4.32;;;;;;;5.65;70.81;103212.75;5092769;28;20035;-65
2022/01/28 05:39:50;;;;;;;15.35;3.53;;;;;;;5.61;71.01;103211.34;5095213;28;20040;-65
2022/01/28 05:42:16;;;;;;;12.25;3.65;;;;;;;5.59;70.26;103213.41;5111585;28;20061;-65
2022/01/28 05:44:41;;;;;;;17.65;3.55;;;;;;;5.55;70.67;103222.16;5112339;28;20043;-65
2022/01/28 05:47:06;;;;;;;13.15;3.70;;;;;;;5.53;70.71;103241.59;5094158;28;20632;-65
2022/01/28 05:49:32;;;;;;;15.82;4.13;;;;;;;5.50;70.70;103241.03;5108440;28;20024;-65
2022/01/28 05:51:57;;;;;;;12.10;3.90;;;;;;;5.48;70.92;103238.47;5106756;28;20455;-66
2022/01/28 05:54:23;;;;;;;13.82;3.67;;;;;;;5.47;70.81;103235.88;5092045;28;20481;-66
2022/01/28 05:56:48;;;;;;;12.98;4.25;;;;;;;5.48;70.59;103243.13;5090795;28;20044;-65
2022/01/28 05:59:14;;;;;;;14.18;4.28;;;;;;;5.45;70.44;103238.78;5092027;28;20028;-66
2022/01/28 06:01:40;;;;;;;13.38;3.83;;;;;;;5.37;70.62;103247.84;5093992;28;20048;-66
2022/01/28 06:04:06;;;;;;;12.32;3.65;;;;;;;5.38;70.31;103254.22;5110874;28;20016;-65
2022/01/28 06:06:32;;;;;;;19.90;4.60;;;;;;;5.38;70.52;103254.22;5109899;28;20034;-65
2022/01/28 06:08:58;;;;;;;19.85;4.00;;;;;;;5.37;70.37;103258.84;5111706;28;20055;-66
2022/01/28 06:11:24;;;;;;;15.93;3.90;;;;;;;5.33;69.95;103262.09;5105634;28;20091;-65
2022/01/28 06:13:52;;;;;;;17.63;3.90;;;;;;;5.33;69.95;103262.97;5111919;28;20023;-65
2022/01/28 06:16:20;;;;;;;15.13;4.10;;;;;;;5.27;70.29;103282.03;5102003;28;20032;-67
2022/01/28 06:18:45;;;;;;;10.02;3.70;;;;;;;5.23;70.20;103275.97;5098488;28;20055;-65
2022/01/28 06:21:11;;;;;;;20.83;4.57;;;;;;;5.20;70.63;103268.03;5104441;28;20063;-65
2022/01/28 06:23:37;;;;;;;12.48;4.28;;;;;;;5.17;70.74;103274.69;5106139;28;20081;-65
2022/01/28 06:26:04;;;;;;;12.93;3.70;;;;;;;5.14;70.64;103271.38;5098137;28;20031;-66
2022/01/28 06:28:29;;;;;;;16.55;4.53;;;;;;;5.15;70.43;103275.91;5107548;28;20386;-65
2022/01/28 06:30:55;;;;;;;11.73;4.35;;;;;;;5.13;70.61;103284.28;5107131;28;20020;-65
2022/01/28 06:33:21;;;;;;;19.33;4.45;;;;;;;5.13;70.66;103298.06;5106206;28;20031;-65
2022/01/28 06:35:47;;;;;;;16.27;4.30;;;;;;;5.13;70.52;103295.31;5098187;28;21725;-64
2022/01/28 06:38:13;;;;;;;13.57;3.88;;;;;;;5.12;69.95;103299.09;5103972;28;20023;-64
2022/01/28 06:40:38;;;;;;;12.60;3.42;;;;;;;5.07;69.88;103306.97;5106441;28;20062;-64
2022/01/28 06:43:07;;;;;;;12.57;4.13;;;;;;;5.03;69.86;103310.16;5107014;28;20055;-66
2022/01/28 06:45:32;;;;;;;14.20;3.90;;;;;;;5.01;69.99;103307.56;5106040;28;20530;-66
2022/01/28 06:47:58;;;;;;;17.27;4.47;;;;;;;5.02;69.68;103313.94;5100491;28;20063;-66
2022/01/28 06:50:23;;;;;;;14.82;4.30;;;;;;;5.00;69.41;103313.25;5099252;28;20027;-65
2022/01/28 06:52:49;;;;;;;11.95;3.72;;;;;;;5.01;69.72;103317.72;5098686;28;20421;-66
2022/01/28 06:55:16;;;;;;;11.57;3.70;;;;;;;4.91;68.99;103313.16;5105147;28;20112;-67
2022/01/28 06:57:41;;;;;;;13.07;4.32;;;;;;;4.93;69.23;103327.63;5107611;28;20166;-67
2022/01/28 07:00:08;;;;;;;15.20;4.25;;;;;;;4.88;69.80;103324.47;5100479;28;20157;-65
2022/01/28 07:02:33;;;;;;;11.00;3.75;;;;;;;4.87;69.80;103333.75;5103490;28;20055;-66
2022/01/28 07:04:59;;;;;;;20.15;4.25;;;;;;;4.86;69.89;103340.25;5103688;28;20034;-66
2022/01/28 07:07:25;;;;;;;15.10;4.07;;;;;;;4.84;69.99;103349.72;5102030;28;20032;-65
2022/01/28 07:09:51;;;;;;;11.13;4.55;;;;;;;4.85;69.56;103356.94;5103969;28;20027;-66
2022/01/28 07:12:17;;;;;;;17.63;4.30;;;;;;;4.86;69.62;103353.16;5102509;28;20373;-66
2022/01/28 07:14:43;;;;;;;17.63;3.75;;;;;;;4.81;69.40;103363.78;5100265;28;20063;-66
2022/01/28 07:17:08;;;;;;;16.27;3.92;;;;;;;4.79;68.92;103368.53;5097474;28;20070;-69
2022/01/28 07:19:33;;;;;;;15.35;3.80;;;;;;;4.78;69.54;103375.06;5094081;28;20077;-67
2022/01/28 07:21:58;;;;;;;13.82;3.90;;;;;;;5.15;75.85;103375.88;5100752;28;20056;-65
2022/01/28 07:24:24;;;;;;;13.32;4.20;;;;;;;5.11;69.98;103373.59;5102270;28;20031;-66
2022/01/28 07:26:49;;;;;;;12.55;4.03;;;;;;;5.11;68.79;103368.94;5108024;28;20023;-66
2022/01/28 07:29:15;;;;;;;10.65;3.55;;;;;;;4.99;68.44;103367.44;5107689;28;20028;-63
2022/01/28 07:31:41;;;;;;;10.63;3.50;;;;;;;4.91;69.13;103379.22;5105077;28;20035;-64
2022/01/28 07:34:08;;;;;;;15.27;3.60;;;;;;;4.83;68.79;103376.34;5098056;28;20031;-63
2022/01/28 07:36:34;;;;;;;14.68;4.05;;;;;;;4.85;68.79;103384.47;5101227;28;20049;-64
2022/01/28 07:39:00;;;;;;;8.02;3.35;;;;;;;4.77;68.53;103381.59;5111503;28;20031;-65
2022/01/28 07:41:26;;;;;;;15.82;3.78;;;;;;;4.71;68.73;103399.56;5100640;28;20042;-65
2022/01/28 07:43:52;;;;;;;16.60;4.15;;;;;;;4.65;68.61;103400.19;5108039;28;20030;-66
2022/01/28 07:46:17;;;;;;;13.02;3.78;;;;;;;4.63;68.72;103397.56;5109960;28;20023;-65
2022/01/28 07:48:42;;;;;;;10.05;3.55;;;;;;;4.60;68.91;103388.78;5102419;28;20439;-65
2022/01/28 07:51:08;;;;;;;17.15;4.07;;;;;;;4.65;68.85;103391.94;5113170;27;20046;-65
2022/01/28 07:53:33;;;;;;;9.93;4.13;;;;;;;4.64;68.86;103387.47;5102437;28;20016;-67
2022/01/28 07:55:58;;;;;;;11.27;4.00;;;;;;;4.61;68.48;103391.38;5101038;28;20030;-65
2022/01/28 07:58:23;;;;;;;12.30;3.45;;;;;;;4.78;72.27;103395.19;5104228;28;20382;-65
2022/01/28 08:00:49;;;;;;;14.23;4.03;;;;;;;4.69;68.93;103401.63;5098084;28;20082;-62
2022/01/28 08:03:14;;;;;;;14.20;3.80;;;;;;;4.65;68.81;103397.44;5105771;28;20058;-63
2022/01/28 08:05:39;;;;;;;13.95;4.95;;;;;;;4.64;68.78;103404.84;5099037;28;20026;-63
2022/01/28 08:08:09;;;;;;;14.38;4.05;;;;;;;4.63;69.00;103407.72;5107289;28;20038;-61
2022/01/28 08:10:35;;;;;;;13.25;3.78;;;;;;;4.63;69.42;103418.72;5105929;28;20083;-64
2022/01/28 08:13:05;;;;;;;15.55;4.28;;;;;;;4.65;69.49;103423.06;5109025;28;20028;-64
2022/01/28 08:15:31;;;;;;;18.00;4.63;;;;;;;4.67;69.17;103409.16;5106201;28;20103;-63
2022/01/28 08:17:56;;;;;;;18.05;4.25;;;;;;;4.65;69.11;103423.06;5102862;28;20028;-65
2022/01/28 08:20:22;;;;;;;11.95;4.25;;;;;;;4.66;68.85;103430.28;5105924;28;20028;-64
2022/01/28 08:22:52;;;;;;;11.43;4.50;;;;;;;4.67;69.27;103431.16;5101096;28;20115;-64
2022/01/28 08:25:19;;;;;;;16.05;4.47;;;;;;;4.68;69.61;103439.28;5104979;28;20047;-65
2022/01/28 08:27:46;;;;;;;13.93;4.55;;;;;;;4.75;70.58;103445.03;5109225;28;20073;-63
2022/01/28 08:30:12;;;;;;;17.63;4.53;;;;;;;4.76;70.57;103456.94;5105217;28;20047;-64
2022/01/28 08:32:38;;;;;;;13.80;4.70;;;;;;;4.79;71.02;103451.97;5110486;28;20067;-63
2022/01/28 08:35:05;;;;;;;16.15;4.43;;;;;;;4.81;71.16;103444.44;5101279;28;20046;-63
2022/01/28 08:37:30;;;;;;;13.52;5.10;;;;;;;4.84;71.05;103444.13;5102461;28;20030;-63
2022/01/28 08:39:55;;;;;;;13.25;4.63;;;;;;;5.26;77.25;103454.63;5106660;28;20032;-61
2022/01/28 08:42:20;;;;;;;12.90;4.90;;;;;;;5.39;71.68;103457.03;5104388;28;20435;-63
2022/01/28 08:44:46;;;;;;;16.80;4.70;;;;;;;5.38;70.12;103458.91;5102602;28;20032;-63
2022/01/28 08:47:11;;;;;;;16.58;5.32;;;;;;;5.30;70.52;103466.19;5105071;28;20039;-62
2022/01/28 08:49:36;;;;;;;15.82;4.25;;;;;;;5.27;70.75;103458.25;5097803;28;20068;-64
2022/01/28 08:52:02;;;;;;;19.75;5.03;;;;;;;5.25;70.95;103461.16;5102688;28;20023;-67
2022/01/28 08:54:28;;;;;;;13.63;4.38;;;;;;;5.20;70.83;103460.75;5099326;28;20063;-67
2022/01/28 08:56:53;;;;;;;14.05;5.03;;;;;;;5.19;71.31;103464.53;5092964;28;20080;-67
2022/01/28 08:59:18;;;;;;;14.98;4.78;;;;;;;5.22;71.44;103453.19;5098253;28;20111;-66
2022/01/28 09:01:44;;;;;;;17.67;5.20;;;;;;;5.22;71.65;103457.84;5108630;28;20036;-66
2022/01/28 09:04:12;;;;;;;17.70;5.13;;;;;;;5.23;72.21;103463.22;5104892;28;20031;-66
2022/01/28 09:06:37;;;;;;;22.23;5.53;;;;;;;5.25;71.97;103461.16;5112731;28;20386;-66
2022/01/28 09:09:03;;;;;;;17.75;5.53;;;;;;;5.31;72.43;103470.69;5113420;28;20023;-66
2022/01/28 09:11:44;;;;;;;13.88;5.43;;;;;;;5.33;72.15;103469.50;5107063;28;20035;-66
2022/01/28 09:14:11;;;;;;;18.67;5.15;;;;;;;5.34;72.29;103462.09;5091818;28;20069;-66
2022/01/28 09:16:36;;;;;;;12.68;4.82;;;;;;;5.36;72.48;103454.56;5092190;28;20028;-66
2022/01/28 09:19:02;;;;;;;16.30;6.00;;;;;;;5.37;72.70;103453.53;5097912;28;20043;-66
2022/01/28 09:21:27;;;;;;;17.55;5.90;;;;;;;5.39;72.89;103462.53;5091854;28;20070;-66
2022/01/28 09:23:52;;;;;;;17.98;6.25;;;;;;;5.44;72.70;103460.16;5092535;28;20016;-67
2022/01/28 09:26:18;;;;;;;19.05;6.57;;;;;;;5.47;73.08;103464.50;5094667;28;20035;-66
2022/01/28 09:28:43;;;;;;;21.48;6.07;;;;;;;5.46;73.45;103471.00;5112797;28;20102;-66
2022/01/28 09:31:08;;;;;;;19.13;6.85;;;;;;;5.48;73.35;103474.50;5104859;28;20032;-66
2022/01/28 09:33:34;;;;;;;16.80;6.15;;;;;;;5.50;73.58;103481.59;5092972;28;20438;-66
2022/01/28 09:36:00;;;;;;;16.83;5.78;;;;;;;5.51;73.61;103480.56;5111508;28;20113;-66
2022/01/28 09:38:25;;;;;;;12.43;5.85;;;;;;;5.60;73.70;103484.28;5092694;28;20515;-66
2022/01/28 09:40:50;;;;;;;19.88;5.88;;;;;;;5.62;73.50;103477.59;5091506;28;20035;-66
2022/01/28 09:43:16;;;;;;;18.83;5.85;;;;;;;5.69;73.85;103479.69;5099317;28;20036;-67
2022/01/28 09:45:41;;;;;;;12.68;5.63;;;;;;;5.81;73.51;103481.19;5091873;28;20072;-66
2022/01/28 09:48:06;;;;;;;17.85;6.38;;;;;;;5.95;73.35;103477.94;5091375;28;20059;-66
2022/01/28 09:50:33;;;;;;;22.45;6.30;;;;;;;6.06;73.67;103479.59;5093955;28;20052;-66
2022/01/28 09:52:59;;;;;;;17.80;5.95;;;;;;;6.23;72.64;103484.19;5091826;28;20123;-66
2022/01/28 09:55:26;;;;;;;18.75;5.97;;;;;;;6.35;72.51;103493.09;5090841;28;20039;-66
2022/01/28 09:57:55;;;;;;;20.45;6.32;;;;;;;6.49;72.68;103499.94;5091042;28;20048;-66
2022/01/28 10:00:23;;;;;;;27.58;6.10;;;;;;;6.62;72.80;103503.13;5091563;28;20044;-66
2022/01/28 10:02:59;;;;;;;17.73;5.95;;;;;;;6.77;72.83;103506.16;5091002;28;20872;-66
2022/01/28 10:05:36;;;;;;;17.65;5.78;;;;;;;6.91;71.88;103499.16;5091684;28;20031;-66
2022/01/28 10:08:15;;;;;;;18.77;6.25;;;;;;;7.03;72.01;103495.94;5091940;28;20097;-66
2022/01/28 10:10:46;;;;;;;16.08;5.80;;;;;;;7.14;72.26;103487.34;5103024;28;20059;-66
2022/01/28 10:13:19;;;;;;;24.10;6.25;;;;;;;7.26;71.69;103484.28;5111601;28;20571;-66
2022/01/28 10:15:53;;;;;;;19.48;6.43;;;;;;;7.42;71.75;103491.78;5095751;28;20048;-66
2022/01/28 10:18:18;;;;;;;14.38;5.50;;;;;;;7.52;71.64;103492.50;5091301;28;20020;-66
2022/01/28 10:20:44;;;;;;;26.05;6.15;;;;;;;7.65;71.03;103486.50;5091430;28;20435;-66
2022/01/28 10:23:12;;;;;;;19.80;5.68;;;;;;;7.76;70.95;103495.31;5090664;28;20039;-66
2022/01/28 10:25:38;;;;;;;15.52;5.13;;;;;;;7.85;70.09;103491.53;5103125;28;20035;-66
2022/01/28 10:28:06;;;;;;;20.15;5.32;;;;;;;7.95;70.78;103485.84;5111782;28;20035;-66
2022/01/28 10:30:37;;;;;;;20.67;5.53;;;;;;;8.06;70.41;103488.28;5099849;28;20077;-66
2022/01/28 10:33:20;;;;;;;21.38;5.38;;;;;;;8.18;70.40;103505.41;5091377;28;20036;-66
2022/01/28 10:35:50;;;;;;;17.10;5.65;;;;;;;8.26;69.44;103507.31;5091520;28;20032;-66
2022/01/28 10:38:27;;;;;;;14.73;4.70;;;;;;;8.35;70.07;103503.50;5090231;28;20024;-66
2022/01/28 10:41:12;;;;;;;21.77;5.15;;;;;;;8.42;69.90;103510.09;5091880;28;20043;-66
2022/01/28 10:43:46;;;;;;;17.83;5.25;;;;;;;8.45;69.58;103495.94;5091031;28;20132;-66
2022/01/28 10:46:11;;;;;;;18.00;5.53;;;;;;;8.52;69.28;103499.69;5111387;28;20036;-66
2022/01/28 10:48:51;;;;;;;21.00;6.00;;;;;;;8.60;70.23;103502.44;5091369;28;20023;-66
2022/01/28 10:51:22;;;;;;;23.85;5.00;;;;;;;8.67;68.81;103494.31;5090207;28;20028;-66
2022/01/28 10:54:08;;;;;;;14.70;5.00;;;;;;;8.74;69.68;103492.56;5091185;28;20766;-66
2022/01/28 10:56:50;;;;;;;18.90;4.95;;;;;;;8.76;69.15;103495.16;5090381;28;20040;-66
2022/01/28 10:59:18;;;;;;;19.35;5.13;;;;;;;8.83;69.03;103493.41;5099158;28;20065;-66
2022/01/28 11:01:44;;;;;;;17.67;4.97;;;;;;;8.85;68.13;103478.38;5107428;28;20107;-66
2022/01/28 11:04:12;;;;;;;19.50;4.80;;;;;;;8.88;68.29;103481.81;5109896;28;20028;-66
2022/01/28 11:06:38;;;;;;;15.57;4.32;;;;;;;8.90;68.16;103480.59;5110554;28;20111;-66
2022/01/28 11:09:03;;;;;;;21.17;5.57;;;;;;;8.94;68.85;103473.66;5097088;28;20032;-66
2022/01/28 11:11:29;;;;;;;21.98;5.30;;;;;;;9.00;68.41;103474.84;5106157;28;20089;-67
2022/01/28 11:13:54;;;;;;;19.40;4.80;;;;;;;9.05;67.88;103473.28;5102596;28;20031;-65
2022/01/28 11:16:19;;;;;;;18.90;4.53;;;;;;;9.09;67.02;103463.56;5103574;28;20541;-68
2022/01/28 11:18:45;;;;;;;16.35;4.55;;;;;;;9.17;67.02;103464.56;5099902;28;20040;-66
2022/01/28 11:21:16;;;;;;;17.30;4.30;;;;;;;9.17;67.30;103465.44;5098476;28;20032;-65
2022/01/28 11:24:04;;;;;;;19.40;4.80;;;;;;;9.24;67.29;103449.81;5095101;28;20027;-66
2022/01/28 11:26:49;;;;;;;13.48;4.18;;;;;;;9.26;66.98;103449.63;5099260;28;20028;-66
2022/01/28 11:29:21;;;;;;;15.20;4.00;;;;;;;9.26;66.50;103442.16;5095460;28;20036;-67
2022/01/28 11:31:50;;;;;;;16.90;4.30;;;;;;;9.27;65.91;103435.56;5099241;28;20113;-67
2022/01/28 11:34:22;;;;;;;16.73;3.63;;;;;;;9.27;65.63;103443.88;5093343;28;20036;-63
2022/01/28 11:36:48;;;;;;;14.23;3.45;;;;;;;9.28;65.80;103434.56;5100731;28;20028;-68
2022/01/28 11:39:38;;;;;;;17.23;3.30;;;;;;;9.31;65.50;103436.97;5113487;28;20054;-66
2022/01/28 11:42:27;;;;;;;12.02;3.53;;;;;;;9.31;65.89;103436.97;5110477;28;20023;-67
2022/01/28 11:44:54;;;;;;;14.35;3.72;;;;;;;9.29;65.07;103429.88;5114223;28;20557;-67
2022/01/28 11:47:27;;;;;;;18.20;3.70;;;;;;;9.32;64.99;103432.28;5108294;28;20382;-67
2022/01/28 11:49:55;;;;;;;18.98;3.53;;;;;;;9.30;64.48;103432.44;5115112;28;20023;-68
2022/01/28 11:52:29;;;;;;;14.52;3.50;;;;;;;9.28;63.36;103431.78;5102241;28;20770;-68
2022/01/28 11:54:56;;;;;;;13.32;2.95;;;;;;;9.27;62.98;103424.47;5094569;28;20035;-68
2022/01/28 11:57:26;;;;;;;14.60;3.28;;;;;;;9.22;62.95;103423.31;5097450;28;20533;-70
2022/01/28 11:59:51;;;;;;;15.38;3.03;;;;;;;9.19;63.11;103423.66;5094653;28;20028;-68
2022/01/28 12:02:19;;;;;;;14.68;2.95;;;;;;;9.10;63.18;103425.63;5101833;28;20044;-69
2022/01/28 12:04:45;;;;;;;15.32;2.90;;;;;;;9.04;63.32;103432.78;5102607;28;20024;-67
2022/01/28 12:07:17;;;;;;;10.70;2.88;;;;;;;9.01;62.75;103427.56;5093898;28;20472;-67
2022/01/28 12:09:45;;;;;;;15.05;2.83;;;;;;;9.04;62.79;103426.38;5096828;28;20031;-66
2022/01/28 12:12:12;;;;;;;13.52;2.65;;;;;;;9.10;62.93;103425.63;5096832;28;20032;-66
2022/01/28 12:14:55;;;;;;;12.38;3.28;;;;;;;9.17;63.80;103428.56;5103209;28;20032;-66
2022/01/28 12:17:29;;;;;;;;;;;;;;;9.25;65.30;103422.97;5114002;28;20074;-66
2022/01/28 12:20:15;;;;;;;14.85;2.95;;;;;;;9.25;64.26;103414.66;5095149;28;19996;-66
2022/01/28 12:22:59;;;;;;;17.95;3.05;;;;;;;9.28;64.19;103408.75;5096337;28;20506;-67
2022/01/28 12:25:46;;;;;;;15.30;3.45;;;;;;;9.30;64.41;103392.78;5095345;28;20024;-67
2022/01/28 12:28:23;;;;;;;11.65;3.45;;;;;;;9.32;63.04;103388.78;5108948;28;20031;-67
2022/01/28 12:30:50;;;;;;;13.63;3.13;;;;;;;9.27;63.10;103387.59;5101198;28;20062;-67
2022/01/28 12:33:21;;;;;;;14.90;3.40;;;;;;;9.21;62.63;103388.34;5094160;28;20031;-68
2022/01/28 12:35:49;;;;;;;12.85;3.40;;;;;;;9.16;61.98;103385.25;5092628;28;20024;-68
2022/01/28 12:38:15;;;;;;;13.88;3.70;;;;;;;9.08;62.16;103384.25;5112623;28;20023;-66
2022/01/28 12:40:48;;;;;;;15.70;4.03;;;;;;;9.04;62.50;103382.91;5104033;28;20031;-66
2022/01/28 12:43:18;;;;;;;16.70;4.50;;;;;;;9.00;62.77;103373.22;5093448;28;20036;-65
2022/01/28 12:45:55;;;;;;;12.85;4.75;;;;;;;8.94;62.45;103370.31;5098048;28;20059;-65
2022/01/28 12:48:20;;;;;;;20.75;5.45;;;;;;;8.88;62.69;103373.78;5098737;28;20030;-66
2022/01/28 12:50:50;;;;;;;15.25;5.13;;;;;;;8.85;62.82;103373.13;5112935;28;20035;-65
2022/01/28 12:53:35;;;;;;;11.27;5.00;;;;;;;8.84;63.89;103376.94;5111574;28;20127;-67